createdAt,value
2022-10-06T00:01:34.847Z,9.42
2022-10-06T00:04:37.361Z,9.41
2022-10-06T00:07:40.143Z,9.39
2022-10-06T00:10:42.693Z,9.38
2022-10-06T00:13:45.555Z,9.37
2022-10-06T00:16:48.106Z,9.37
2022-10-06T00:19:50.576Z,9.40
2022-10-06T00:22:53.264Z,9.45
2022-10-06T00:25:56.358Z,9.47
2022-10-06T00:28:58.975Z,9.54
2022-10-06T00:32:01.496Z,9.63
2022-10-06T00:35:04.911Z,9.69
2022-10-06T00:38:07.560Z,9.73
2022-10-06T00:41:11.283Z,9.75
2022-10-06T00:44:13.909Z,9.79
2022-10-06T00:47:22.016Z,9.84
2022-10-06T00:50:24.755Z,9.86
2022-10-06T00:53:28.614Z,9.85
2022-10-06T00:56:31.349Z,9.82
2022-10-06T00:59:34.712Z,9.78
2022-10-06T01:02:41.144Z,9.72
2022-10-06T01:05:46.547Z,9.66
2022-10-06T01:08:49.401Z,9.60
2022-10-06T01:11:53.591Z,9.54
2022-10-06T01:14:56.711Z,9.48
2022-10-06T01:18:02.387Z,9.44
2022-10-06T01:21:10.185Z,9.42
2022-10-06T01:24:16.317Z,9.41
2022-10-06T01:27:19.969Z,9.38
2022-10-06T01:30:25.565Z,9.36
2022-10-06T01:33:29.187Z,9.33
2022-10-06T01:36:32.149Z,9.30
2022-10-06T01:39:34.804Z,9.25
2022-10-06T01:42:37.835Z,9.20
2022-10-06T01:45:40.411Z,9.15
2022-10-06T01:48:43.936Z,9.11
2022-10-06T01:51:48.152Z,9.06
2022-10-06T01:54:50.816Z,9.03
2022-10-06T01:57:53.797Z,8.99
2022-10-06T02:00:57.085Z,8.96
2022-10-06T02:04:00.651Z,8.93
2022-10-06T02:07:04.370Z,8.90
2022-10-06T02:10:14.216Z,8.85
2022-10-06T02:13:17.787Z,8.81
2022-10-06T02:16:21.892Z,8.77
2022-10-06T02:19:24.561Z,8.76
2022-10-06T02:22:30.464Z,8.76
2022-10-06T02:25:32.983Z,8.77
2022-10-06T02:28:35.551Z,8.81
2022-10-06T02:31:39.023Z,8.85
2022-10-06T02:34:41.859Z,8.90
2022-10-06T02:37:45.455Z,8.97
2022-10-06T02:40:51.211Z,9.01
2022-10-06T02:43:54.540Z,9.04
2022-10-06T02:46:57.423Z,9.08
2022-10-06T02:50:01.727Z,9.15
2022-10-06T02:53:06.408Z,9.22
2022-10-06T02:56:10.320Z,9.32
2022-10-06T02:59:13.213Z,9.39
2022-10-06T03:02:16.378Z,9.47
2022-10-06T03:05:19.841Z,9.52
2022-10-06T03:08:22.504Z,9.56
2022-10-06T03:11:27.153Z,9.62
2022-10-06T03:14:33.027Z,9.71
2022-10-06T03:17:35.826Z,9.84
2022-10-06T03:20:38.857Z,9.96
2022-10-06T03:23:41.965Z,10.09
2022-10-06T03:26:47.267Z,10.22
2022-10-06T03:29:50.967Z,10.35
2022-10-06T03:32:54.547Z,10.47
2022-10-06T03:36:00.438Z,10.60
2022-10-06T03:39:04.369Z,10.72
2022-10-06T03:42:07.852Z,10.83
2022-10-06T03:45:13.427Z,10.91
2022-10-06T03:48:15.966Z,11.00
2022-10-06T03:51:20.888Z,11.09
2022-10-06T03:54:23.999Z,11.19
2022-10-06T03:57:27.284Z,11.28
2022-10-06T04:00:30.505Z,11.38
2022-10-06T04:03:33.846Z,11.48
2022-10-06T04:06:37.395Z,11.60
2022-10-06T04:09:41.550Z,11.70
2022-10-06T04:12:45.798Z,11.79
2022-10-06T04:15:48.718Z,11.87
2022-10-06T04:18:52.951Z,11.95
2022-10-06T04:21:55.448Z,12.02
2022-10-06T04:25:00.609Z,12.08
2022-10-06T04:28:03.578Z,12.12
2022-10-06T04:31:15.138Z,12.14
2022-10-06T04:34:17.883Z,12.12
2022-10-06T04:37:21.660Z,12.06
2022-10-06T04:40:24.787Z,11.98
2022-10-06T04:43:27.698Z,11.88
2022-10-06T04:46:42.582Z,11.78
2022-10-06T04:49:46.723Z,11.67
2022-10-06T04:52:49.495Z,11.58
2022-10-06T04:55:59.459Z,11.49
2022-10-06T04:59:02.009Z,11.41
2022-10-06T05:02:06.311Z,11.35
2022-10-06T05:05:10.333Z,11.33
2022-10-06T05:08:13.755Z,11.28
2022-10-06T05:11:18.099Z,11.23
2022-10-06T05:14:22.230Z,11.19
2022-10-06T05:17:25.732Z,11.16
2022-10-06T05:20:31.040Z,11.17
2022-10-06T05:23:36.943Z,11.16
2022-10-06T05:26:39.738Z,11.18
2022-10-06T05:29:45.809Z,11.19
2022-10-06T05:32:49.889Z,11.20
2022-10-06T05:35:52.875Z,11.23
2022-10-06T05:38:56.430Z,11.27
2022-10-06T05:41:59.007Z,11.32
2022-10-06T05:45:02.591Z,11.40
2022-10-06T05:48:05.731Z,11.50
2022-10-06T05:51:09.979Z,11.67
2022-10-06T05:54:14.450Z,11.88
2022-10-06T05:57:17.091Z,12.11
2022-10-06T06:00:19.903Z,12.31
2022-10-06T06:03:22.712Z,12.48
2022-10-06T06:06:26.419Z,12.62
2022-10-06T06:09:30.710Z,12.74
2022-10-06T06:12:35.083Z,12.90
2022-10-06T06:16:03.560Z,13.10
2022-10-06T06:19:08.066Z,13.23
2022-10-06T06:22:12.041Z,13.33
2022-10-06T06:25:16.502Z,13.47
2022-10-06T06:28:19.558Z,13.64
2022-10-06T06:31:25.971Z,13.78
2022-10-06T06:34:29.468Z,13.90
2022-10-06T06:37:32.888Z,13.98
2022-10-06T06:40:39.464Z,14.05
2022-10-06T06:43:42.127Z,14.15
2022-10-06T06:46:53.382Z,14.21
2022-10-06T06:49:58.237Z,14.24
2022-10-06T06:53:01.847Z,14.27
2022-10-06T06:56:05.844Z,14.29
2022-10-06T06:59:11.186Z,14.31
2022-10-06T07:02:15.126Z,14.34
2022-10-06T07:05:20.119Z,14.38
2022-10-06T07:08:22.719Z,14.43
2022-10-06T07:11:26.666Z,14.49
2022-10-06T07:14:29.744Z,14.54
2022-10-06T07:17:50.746Z,14.62
2022-10-06T07:21:11.903Z,14.72
2022-10-06T07:24:33.076Z,14.84
2022-10-06T07:27:36.758Z,14.93
2022-10-06T07:30:40.925Z,14.98
2022-10-06T07:33:55.368Z,15.07
2022-10-06T07:37:01.581Z,15.14
2022-10-06T07:40:08.350Z,15.19
2022-10-06T07:43:11.083Z,15.26
2022-10-06T07:46:24.280Z,15.37
2022-10-06T07:49:34.857Z,15.52
2022-10-06T07:52:39.215Z,15.65
2022-10-06T07:55:44.485Z,15.71
2022-10-06T07:58:57.972Z,15.77
2022-10-06T08:02:00.595Z,15.88
2022-10-06T08:05:03.359Z,16.03
2022-10-06T08:08:06.227Z,16.17
2022-10-06T08:11:09.359Z,16.27
2022-10-06T08:14:14.398Z,16.38
2022-10-06T08:17:17.001Z,16.43
2022-10-06T08:20:19.790Z,16.42
2022-10-06T08:23:22.346Z,16.41
2022-10-06T08:26:25.728Z,16.47
2022-10-06T08:29:28.425Z,16.54
2022-10-06T08:32:32.414Z,16.62
2022-10-06T08:35:35.521Z,16.71
2022-10-06T08:38:38.525Z,16.78
2022-10-06T08:41:47.745Z,16.91
2022-10-06T08:44:56.268Z,17.04
2022-10-06T08:48:01.981Z,17.19
2022-10-06T08:51:22.177Z,17.28
2022-10-06T08:54:29.247Z,17.33
2022-10-06T08:57:36.635Z,17.33
2022-10-06T09:00:39.290Z,17.27
2022-10-06T09:03:46.599Z,17.04
2022-10-06T09:06:51.834Z,16.81
2022-10-06T09:10:03.215Z,16.72
2022-10-06T09:13:07.448Z,16.71
2022-10-06T09:16:12.817Z,16.80
2022-10-06T09:19:19.304Z,16.90
2022-10-06T09:22:22.968Z,16.89
2022-10-06T09:25:27.675Z,16.95
2022-10-06T09:28:30.191Z,17.01
2022-10-06T09:31:37.257Z,17.07
2022-10-06T09:34:42.462Z,17.17
2022-10-06T09:37:56.386Z,17.28
2022-10-06T09:40:58.991Z,17.40
2022-10-06T09:44:04.127Z,17.54
2022-10-06T09:47:20.880Z,17.61
2022-10-06T09:50:24.927Z,17.66
2022-10-06T09:53:27.316Z,17.71
2022-10-06T09:56:32.513Z,17.81
2022-10-06T09:59:40.123Z,17.84
2022-10-06T10:02:43.283Z,17.89
2022-10-06T10:05:49.861Z,17.99
2022-10-06T10:08:56.508Z,18.12
2022-10-06T10:12:27.275Z,18.25
2022-10-06T10:15:32.416Z,18.28
2022-10-06T10:18:34.944Z,18.39
2022-10-06T10:21:37.760Z,18.43
2022-10-06T10:24:49.703Z,18.51
2022-10-06T10:27:54.818Z,18.57
2022-10-06T10:31:01.206Z,18.59
2022-10-06T10:34:12.462Z,18.68
2022-10-06T10:37:27.957Z,18.67
2022-10-06T10:40:35.620Z,18.64
2022-10-06T10:43:41.419Z,18.54
2022-10-06T10:46:47.719Z,18.56
2022-10-06T10:49:53.004Z,18.62
2022-10-06T10:52:59.051Z,18.67
2022-10-06T10:56:03.197Z,18.75
2022-10-06T10:59:10.765Z,18.79
2022-10-06T11:02:17.160Z,18.77
2022-10-06T11:05:31.955Z,18.70
2022-10-06T11:08:39.765Z,18.60
2022-10-06T11:11:51.924Z,18.58
2022-10-06T11:14:58.879Z,18.61
2022-10-06T11:18:08.715Z,18.65
2022-10-06T11:21:13.689Z,18.83
2022-10-06T11:24:19.447Z,18.93
2022-10-06T11:27:27.135Z,18.84
2022-10-06T11:30:33.235Z,18.91
2022-10-06T11:33:40.281Z,19.03
2022-10-06T11:36:46.833Z,19.21
2022-10-06T11:39:54.007Z,19.24
2022-10-06T11:43:01.308Z,19.16
2022-10-06T11:46:07.511Z,19.22
2022-10-06T11:49:28.159Z,19.15
2022-10-06T11:52:45.589Z,19.21
2022-10-06T11:56:08.749Z,19.32
2022-10-06T11:59:34.565Z,19.51
2022-10-06T12:02:37.994Z,19.65
2022-10-06T12:05:57.285Z,19.66
2022-10-06T12:09:01.333Z,19.66
2022-10-06T12:12:26.022Z,19.58
2022-10-06T12:19:18.845Z,19.30
2022-10-06T12:22:24.705Z,19.11
2022-10-06T12:25:31.384Z,19.04
2022-10-06T12:28:36.623Z,19.00
2022-10-06T12:31:44.728Z,18.97
2022-10-06T12:34:55.565Z,18.81
2022-10-06T12:38:03.949Z,18.70
2022-10-06T12:41:09.118Z,18.68
2022-10-06T12:44:21.486Z,18.60
2022-10-06T12:47:30.419Z,18.71
2022-10-06T12:50:33.249Z,18.79
2022-10-06T12:53:38.254Z,18.89
2022-10-06T12:56:41.558Z,18.94
2022-10-06T12:59:44.523Z,18.89
2022-10-06T13:02:47.628Z,18.83
2022-10-06T13:05:51.199Z,18.88
2022-10-06T13:09:12.425Z,18.95
2022-10-06T13:12:26.665Z,18.88
2022-10-06T13:18:37.904Z,18.79
2022-10-06T13:21:40.716Z,18.82
2022-10-06T13:24:43.139Z,18.88
2022-10-06T13:27:49.786Z,18.91
2022-10-06T13:30:53.479Z,18.94
2022-10-06T13:33:58.415Z,18.84
2022-10-06T13:37:01.525Z,18.76
2022-10-06T13:40:21.958Z,18.79
2022-10-06T13:43:34.095Z,18.90
2022-10-06T13:47:22.064Z,18.91
2022-10-06T13:50:27.293Z,18.78
2022-10-06T13:53:33.712Z,18.82
2022-10-06T13:56:40.736Z,18.83
2022-10-06T13:59:46.582Z,18.90
2022-10-06T14:02:54.364Z,18.90
2022-10-06T14:06:12.701Z,18.90
2022-10-06T14:09:22.002Z,18.83
2022-10-06T14:12:27.612Z,18.67
2022-10-06T14:15:39.485Z,18.62
2022-10-06T14:18:46.742Z,18.63
2022-10-06T14:21:52.257Z,18.61
2022-10-06T14:24:57.464Z,18.63
2022-10-06T14:28:02.680Z,18.66
2022-10-06T14:31:13.479Z,18.70
2022-10-06T14:34:21.472Z,18.64
2022-10-06T14:37:26.584Z,18.54
2022-10-06T14:40:31.940Z,18.58
2022-10-06T14:43:38.161Z,18.63
2022-10-06T14:46:44.763Z,18.64
2022-10-06T14:49:50.195Z,18.64
2022-10-06T14:52:58.699Z,18.62
2022-10-06T14:56:05.783Z,18.60
2022-10-06T14:59:16.754Z,18.50
2022-10-06T15:02:22.204Z,18.48
2022-10-06T15:05:27.619Z,18.44
2022-10-06T15:08:32.946Z,18.43
2022-10-06T15:11:38.716Z,18.39
2022-10-06T15:14:43.817Z,18.32
2022-10-06T15:17:49.142Z,18.18
2022-10-06T15:20:54.906Z,18.08
2022-10-06T15:24:00.947Z,17.99
2022-10-06T15:27:25.127Z,17.92
2022-10-06T15:30:31.059Z,17.82
2022-10-06T15:33:36.966Z,17.76
2022-10-06T15:36:43.200Z,17.66
2022-10-06T15:39:48.455Z,17.49
2022-10-06T15:42:53.712Z,17.33
2022-10-06T15:45:59.107Z,17.21
2022-10-06T15:49:05.630Z,16.97
2022-10-06T15:52:12.466Z,16.62
2022-10-06T15:55:17.697Z,16.28
2022-10-06T15:58:23.323Z,16.00
2022-10-06T16:01:34.021Z,15.74
2022-10-06T16:04:55.587Z,15.52
2022-10-06T16:08:00.916Z,15.28
2022-10-06T16:11:06.157Z,15.06
2022-10-06T16:14:11.766Z,14.89
2022-10-06T16:17:17.057Z,14.71
2022-10-06T16:20:22.431Z,14.56
2022-10-06T16:23:27.624Z,14.41
2022-10-06T16:26:33.054Z,14.28
2022-10-06T16:29:38.211Z,14.12
2022-10-06T16:32:44.548Z,13.98
2022-10-06T16:35:56.145Z,13.85
2022-10-06T16:39:01.578Z,13.73
2022-10-06T16:42:09.324Z,13.59
2022-10-06T16:45:15.487Z,13.44
2022-10-06T16:48:20.793Z,13.29
2022-10-06T16:51:26.880Z,13.10
2022-10-06T16:54:32.179Z,12.89
2022-10-06T16:57:37.379Z,12.68
2022-10-06T17:00:42.666Z,12.47
2022-10-06T17:03:47.841Z,12.28
2022-10-06T17:06:54.093Z,12.08
2022-10-06T17:10:19.131Z,11.87
2022-10-06T17:13:25.243Z,11.63
2022-10-06T17:16:34.304Z,11.39
2022-10-06T17:19:39.516Z,11.12
2022-10-06T17:22:45.201Z,10.89
2022-10-06T17:26:03.385Z,10.68
2022-10-06T17:29:11.096Z,10.47
2022-10-06T17:32:16.756Z,10.30
2022-10-06T17:35:22.011Z,10.12
2022-10-06T17:38:27.999Z,9.93
2022-10-06T17:41:35.147Z,9.74
2022-10-06T17:44:40.426Z,9.56
2022-10-06T17:47:48.730Z,9.40
2022-10-06T17:50:59.633Z,9.27
2022-10-06T17:54:05.714Z,9.16
2022-10-06T17:57:11.045Z,9.07
2022-10-06T18:00:18.246Z,8.97
2022-10-06T18:03:26.580Z,8.84
2022-10-06T18:06:33.209Z,8.71
2022-10-06T18:09:39.150Z,8.57
2022-10-06T18:12:44.506Z,8.45
2022-10-06T18:15:51.087Z,8.33
2022-10-06T18:19:20.349Z,8.23
2022-10-06T18:22:25.749Z,8.12
2022-10-06T18:25:35.328Z,8.06
2022-10-06T18:28:41.521Z,8.01
2022-10-06T18:31:49.042Z,7.94
2022-10-06T18:38:22.560Z,7.81
2022-10-06T18:41:31.368Z,7.77
2022-10-06T18:44:55.777Z,7.75
2022-10-06T18:48:20.417Z,7.74
2022-10-06T18:51:30.252Z,7.66
2022-10-06T18:54:37.235Z,7.57
2022-10-06T18:57:45.816Z,7.48
2022-10-06T19:00:54.618Z,7.41
2022-10-06T19:04:04.830Z,7.33
2022-10-06T19:07:11.510Z,7.25
2022-10-06T19:10:18.257Z,7.21
2022-10-06T19:13:25.058Z,7.18
2022-10-06T19:16:32.034Z,7.14
2022-10-06T19:19:38.597Z,7.05
2022-10-06T19:22:45.165Z,6.98
2022-10-06T19:25:59.756Z,6.93
2022-10-06T19:29:08.377Z,6.91
2022-10-06T19:32:17.713Z,6.90
2022-10-06T19:35:24.542Z,6.87
2022-10-06T19:38:31.448Z,6.82
2022-10-06T19:41:57.228Z,6.74
2022-10-06T19:45:04.943Z,6.65
2022-10-06T19:48:11.707Z,6.60
2022-10-06T19:51:19.710Z,6.56
2022-10-06T19:54:27.849Z,6.53
2022-10-06T19:57:35.202Z,6.52
2022-10-06T20:00:42.252Z,6.46
2022-10-06T20:03:48.849Z,6.39
2022-10-06T20:06:55.544Z,6.31
2022-10-06T20:10:03.165Z,6.25
2022-10-06T20:13:09.880Z,6.20
2022-10-06T20:16:18.807Z,6.16
2022-10-06T20:19:26.254Z,6.08
2022-10-06T20:22:32.858Z,6.01
2022-10-06T20:25:39.572Z,5.97
2022-10-06T20:28:47.031Z,5.95
2022-10-06T20:31:56.356Z,5.92
2022-10-06T20:35:03.929Z,5.85
2022-10-06T20:38:10.544Z,5.77
2022-10-06T20:41:19.661Z,5.67
2022-10-06T20:44:26.250Z,5.60
2022-10-06T20:47:33.701Z,5.57
2022-10-06T20:50:40.295Z,5.53
2022-10-06T20:53:47.546Z,5.48
2022-10-06T20:56:56.695Z,5.42
2022-10-06T21:00:03.469Z,5.36
2022-10-06T21:03:10.435Z,5.31
2022-10-06T21:06:18.523Z,5.25
2022-10-06T21:09:28.364Z,5.19
2022-10-06T21:12:35.392Z,5.15
2022-10-06T21:15:47.706Z,5.11
2022-10-06T21:18:55.015Z,5.04
2022-10-06T21:22:01.603Z,4.95
2022-10-06T21:25:09.982Z,4.90
2022-10-06T21:28:18.543Z,4.85
2022-10-06T21:31:27.151Z,4.82
2022-10-06T21:34:37.551Z,4.80
2022-10-06T21:37:44.504Z,4.79
2022-10-06T21:40:51.567Z,4.80
2022-10-06T21:43:59.621Z,4.78
2022-10-06T21:47:07.978Z,4.75
2022-10-06T21:50:14.993Z,4.73
2022-10-06T21:53:22.015Z,4.68
2022-10-06T21:56:30.557Z,4.63
2022-10-06T21:59:37.287Z,4.59
2022-10-06T22:02:44.018Z,4.54
2022-10-06T22:05:50.791Z,4.48
2022-10-06T22:08:58.702Z,4.43
2022-10-06T22:12:05.966Z,4.39
2022-10-06T22:15:13.403Z,4.36
2022-10-06T22:18:20.083Z,4.30
2022-10-06T22:21:28.583Z,4.25
2022-10-06T22:24:35.305Z,4.22
2022-10-06T22:27:42.352Z,4.18
2022-10-06T22:30:49.382Z,4.17
2022-10-06T22:33:57.781Z,4.15
2022-10-06T22:37:04.452Z,4.09
2022-10-06T22:40:13.781Z,4.02
2022-10-06T22:43:20.515Z,3.97
2022-10-06T22:46:28.359Z,3.93
2022-10-06T22:49:35.332Z,3.87
2022-10-06T22:52:42.069Z,3.84
2022-10-06T22:55:49.137Z,3.83
2022-10-06T22:58:59.691Z,3.85
2022-10-06T23:02:07.091Z,3.86
2022-10-06T23:05:13.655Z,3.88
2022-10-06T23:08:20.543Z,3.87
2022-10-06T23:11:27.199Z,3.83
2022-10-06T23:14:33.958Z,3.79
2022-10-06T23:17:41.215Z,3.78
2022-10-06T23:20:48.192Z,3.77
2022-10-06T23:23:56.324Z,3.73
2022-10-06T23:27:04.679Z,3.68
2022-10-06T23:30:13.382Z,3.65
2022-10-06T23:33:20.067Z,3.61
2022-10-06T23:36:26.930Z,3.56
2022-10-06T23:39:33.717Z,3.53
2022-10-06T23:42:40.459Z,3.49
2022-10-06T23:45:47.360Z,3.48
2022-10-06T23:48:54.151Z,3.47
2022-10-06T23:52:01.030Z,3.45
2022-10-06T23:55:08.884Z,3.44
2022-10-06T23:58:15.793Z,3.44
